createdAt,value
2023-03-02T00:00:52.067Z,8.63
2023-03-02T00:03:41.774Z,9.50
2023-03-02T00:06:31.205Z,9.13
2023-03-02T00:09:21.219Z,9.15
2023-03-02T00:12:09.752Z,9.25
2023-03-02T00:14:56.732Z,8.55
2023-03-02T00:17:44.106Z,9.18
2023-03-02T00:20:31.515Z,8.65
2023-03-02T00:23:19.114Z,8.80
2023-03-02T00:26:07.183Z,8.60
2023-03-02T00:28:54.582Z,9.68
2023-03-02T00:31:42.260Z,8.70
2023-03-02T00:34:31.370Z,8.55
2023-03-02T00:37:18.516Z,8.53
2023-03-02T00:40:09.556Z,8.55
2023-03-02T00:42:56.679Z,8.80
2023-03-02T00:45:44.523Z,8.88
2023-03-02T00:48:31.773Z,8.98
2023-03-02T00:51:19.677Z,9.55
2023-03-02T00:54:06.780Z,9.45
2023-03-02T00:56:54.482Z,8.78
2023-03-02T00:59:41.701Z,9.20
2023-03-02T01:02:28.989Z,8.90
2023-03-02T01:05:16.921Z,9.83
2023-03-02T01:08:04.322Z,9.70
2023-03-02T01:10:54.152Z,9.78
2023-03-02T01:13:40.953Z,9.83
2023-03-02T01:16:28.613Z,9.90
2023-03-02T01:19:16.733Z,10.15
2023-03-02T01:22:05.982Z,9.48
2023-03-02T01:24:53.400Z,9.28
2023-03-02T01:27:43.734Z,10.60
2023-03-02T01:30:31.261Z,10.40
2023-03-02T01:33:18.690Z,9.63
2023-03-02T01:36:06.637Z,9.43
2023-03-02T01:38:54.291Z,10.50
2023-03-02T01:41:41.462Z,9.63
2023-03-02T01:44:42.344Z,9.60
2023-03-02T01:47:38.860Z,9.98
2023-03-02T01:50:28.061Z,9.55
2023-03-02T01:53:16.852Z,10.13
2023-03-02T01:56:06.267Z,9.75
2023-03-02T01:58:56.919Z,9.45
2023-03-02T02:01:46.463Z,9.78
2023-03-02T02:04:35.327Z,10.05
2023-03-02T02:07:22.641Z,10.53
2023-03-02T02:10:11.231Z,9.53
2023-03-02T02:12:58.445Z,10.15
2023-03-02T02:15:46.238Z,10.38
2023-03-02T02:18:35.589Z,9.38
2023-03-02T02:21:25.208Z,10.03
2023-03-02T02:24:24.151Z,10.03
2023-03-02T02:27:12.068Z,9.75
2023-03-02T02:30:00.114Z,10.60
2023-03-02T02:32:49.788Z,10.20
2023-03-02T02:35:38.720Z,9.98
2023-03-02T02:38:26.476Z,9.95
2023-03-02T02:41:16.552Z,10.15
2023-03-02T02:44:03.323Z,10.25
2023-03-02T02:46:50.593Z,10.28
2023-03-02T02:49:41.039Z,10.93
2023-03-02T02:52:29.791Z,9.85
2023-03-02T02:55:20.469Z,10.20
2023-03-02T02:58:13.927Z,9.48
2023-03-02T03:01:02.104Z,10.55
2023-03-02T03:03:54.965Z,10.28
2023-03-02T03:06:45.690Z,10.03
2023-03-02T03:09:33.761Z,9.53
2023-03-02T03:12:23.907Z,10.08
2023-03-02T03:15:12.142Z,11.30
2023-03-02T03:18:00.194Z,11.30
2023-03-02T03:20:47.213Z,10.88
2023-03-02T03:23:36.308Z,9.75
2023-03-02T03:26:23.448Z,10.82
2023-03-02T03:29:11.382Z,10.60
2023-03-02T03:32:00.456Z,9.90
2023-03-02T03:34:47.836Z,9.70
2023-03-02T03:37:35.460Z,10.72
2023-03-02T03:40:22.935Z,10.50
2023-03-02T03:43:10.237Z,10.03
2023-03-02T03:45:57.849Z,9.90
2023-03-02T03:48:44.978Z,10.40
2023-03-02T03:51:34.051Z,10.00
2023-03-02T03:54:21.235Z,10.13
2023-03-02T03:57:10.648Z,10.35
2023-03-02T03:59:57.966Z,11.20
2023-03-02T04:02:47.285Z,10.50
2023-03-02T04:05:34.548Z,10.82
2023-03-02T04:08:22.949Z,9.90
2023-03-02T04:11:10.455Z,10.15
2023-03-02T04:13:57.618Z,8.90
2023-03-02T04:16:45.484Z,9.73
2023-03-02T04:19:35.204Z,9.55
2023-03-02T04:22:22.607Z,9.83
2023-03-02T04:25:09.891Z,10.08
2023-03-02T04:27:57.700Z,10.20
2023-03-02T04:30:44.756Z,10.03
2023-03-02T04:33:32.125Z,9.40
2023-03-02T04:36:20.036Z,9.88
2023-03-02T04:39:08.822Z,9.65
2023-03-02T04:41:56.982Z,10.48
2023-03-02T04:44:44.512Z,10.88
2023-03-02T04:47:32.231Z,9.65
2023-03-02T04:50:19.015Z,10.13
2023-03-02T04:53:06.435Z,9.95
2023-03-02T04:55:53.780Z,9.35
2023-03-02T04:58:41.188Z,9.43
2023-03-02T05:01:29.492Z,9.33
2023-03-02T05:04:17.076Z,9.38
2023-03-02T05:07:04.140Z,8.60
2023-03-02T05:09:51.624Z,9.85
2023-03-02T05:12:56.759Z,8.98
2023-03-02T05:15:44.053Z,9.40
2023-03-02T05:18:31.407Z,8.30
2023-03-02T05:21:20.038Z,9.25
2023-03-02T05:24:07.933Z,9.05
2023-03-02T05:26:55.586Z,8.68
2023-03-02T05:29:42.869Z,9.20
2023-03-02T05:32:30.061Z,8.85
2023-03-02T05:35:18.256Z,9.18
2023-03-02T05:38:05.874Z,9.95
2023-03-02T05:40:53.047Z,8.98
2023-03-02T05:43:40.875Z,9.25
2023-03-02T05:46:28.353Z,9.08
2023-03-02T05:49:15.383Z,8.50
2023-03-02T05:52:02.362Z,9.15
2023-03-02T05:54:49.546Z,9.13
2023-03-02T05:57:37.143Z,8.55
2023-03-02T06:00:25.240Z,8.48
2023-03-02T06:03:13.200Z,8.40
2023-03-02T06:06:00.770Z,8.43
2023-03-02T06:08:48.231Z,8.48
2023-03-02T06:11:42.895Z,8.03
2023-03-02T06:14:30.250Z,8.30
2023-03-02T06:17:17.809Z,7.90
2023-03-02T06:20:07.139Z,8.58
2023-03-02T06:22:54.305Z,7.87
2023-03-02T06:25:43.499Z,8.23
2023-03-02T06:28:31.023Z,8.55
2023-03-02T06:31:18.367Z,8.63
2023-03-02T06:34:05.578Z,8.77
2023-03-02T06:36:52.852Z,8.43
2023-03-02T06:39:40.518Z,7.78
2023-03-02T06:42:28.812Z,8.68
2023-03-02T06:45:15.985Z,8.25
2023-03-02T06:48:03.999Z,8.75
2023-03-02T06:50:51.414Z,7.67
2023-03-02T06:53:39.253Z,8.45
2023-03-02T06:56:29.197Z,8.65
2023-03-02T06:59:16.466Z,8.75
2023-03-02T07:02:03.525Z,8.33
2023-03-02T07:04:50.718Z,7.92
2023-03-02T07:07:38.193Z,8.18
2023-03-02T07:10:25.754Z,8.60
2023-03-02T07:13:13.144Z,8.15
2023-03-02T07:16:00.711Z,9.45
2023-03-02T07:18:49.498Z,8.00
2023-03-02T07:21:36.744Z,8.48
2023-03-02T07:24:24.110Z,8.25
2023-03-02T07:27:11.130Z,8.00
2023-03-02T07:29:58.513Z,7.62
2023-03-02T07:32:45.425Z,8.33
2023-03-02T07:35:32.685Z,8.03
2023-03-02T07:38:19.915Z,7.58
2023-03-02T07:41:09.156Z,8.15
2023-03-02T07:43:57.159Z,8.90
2023-03-02T07:46:44.470Z,7.80
2023-03-02T07:49:31.788Z,8.10
2023-03-02T07:52:19.079Z,8.10
2023-03-02T07:55:06.436Z,7.80
2023-03-02T07:57:53.405Z,7.60
2023-03-02T08:00:42.772Z,7.87
2023-03-02T08:03:30.335Z,8.03
2023-03-02T08:06:17.551Z,7.80
2023-03-02T08:09:05.667Z,8.68
2023-03-02T08:11:53.082Z,8.05
2023-03-02T08:14:40.545Z,7.70
2023-03-02T08:17:27.883Z,7.72
2023-03-02T08:20:15.156Z,7.42
2023-03-02T08:23:02.371Z,8.50
2023-03-02T08:25:49.710Z,8.40
2023-03-02T08:28:37.025Z,7.75
2023-03-02T08:31:24.155Z,8.93
2023-03-02T08:34:11.786Z,8.40
2023-03-02T08:36:58.558Z,7.87
2023-03-02T08:39:46.776Z,8.13
2023-03-02T08:42:34.471Z,8.18
2023-03-02T08:45:21.724Z,7.92
2023-03-02T08:48:09.111Z,8.28
2023-03-02T08:50:59.088Z,7.95
2023-03-02T08:53:50.414Z,7.85
2023-03-02T08:56:40.233Z,7.97
2023-03-02T08:59:27.581Z,7.03
2023-03-02T09:02:14.670Z,7.72
2023-03-02T09:05:02.218Z,7.78
2023-03-02T09:07:49.441Z,8.98
2023-03-02T09:10:36.788Z,8.95
2023-03-02T09:13:24.211Z,8.25
2023-03-02T09:16:12.112Z,8.28
2023-03-02T09:18:59.252Z,8.38
2023-03-02T09:21:46.746Z,8.18
2023-03-02T09:24:34.250Z,7.58
2023-03-02T09:27:21.308Z,8.53
2023-03-02T09:30:11.290Z,7.65
2023-03-02T09:32:58.685Z,8.33
2023-03-02T09:35:47.530Z,7.12
2023-03-02T09:38:34.776Z,8.33
2023-03-02T09:41:31.874Z,7.65
2023-03-02T09:44:37.083Z,8.78
2023-03-02T09:47:36.258Z,7.80
2023-03-02T09:50:35.530Z,7.65
2023-03-02T09:53:48.984Z,7.67
2023-03-02T09:56:39.308Z,7.65
2023-03-02T09:59:32.485Z,7.20
2023-03-02T10:02:46.602Z,7.47
2023-03-02T10:05:41.682Z,7.90
2023-03-02T10:08:32.421Z,7.20
2023-03-02T10:11:36.843Z,7.05
2023-03-02T10:14:29.541Z,6.97
2023-03-02T10:17:33.861Z,7.40
2023-03-02T10:20:24.003Z,6.90
2023-03-02T10:23:22.903Z,6.72
2023-03-02T10:26:18.799Z,6.87
2023-03-02T10:29:17.360Z,6.65
2023-03-02T10:32:25.904Z,6.85
2023-03-02T10:35:16.263Z,6.28
2023-03-02T10:38:15.333Z,6.90
2023-03-02T10:41:07.034Z,6.42
2023-03-02T10:43:57.487Z,6.30
2023-03-02T10:46:46.811Z,6.08
2023-03-02T10:49:36.559Z,6.83
2023-03-02T10:52:29.328Z,7.28
2023-03-02T10:55:17.336Z,7.28
2023-03-02T10:58:07.533Z,6.53
2023-03-02T11:01:02.890Z,6.53
2023-03-02T11:03:58.461Z,6.47
2023-03-02T11:06:45.391Z,5.75
2023-03-02T11:09:32.422Z,5.95
2023-03-02T11:12:20.399Z,6.25
2023-03-02T11:15:25.384Z,6.03
2023-03-02T11:18:39.252Z,6.47
2023-03-02T11:21:33.206Z,6.80
2023-03-02T11:24:23.767Z,5.97
2023-03-02T11:27:25.410Z,5.95
2023-03-02T11:30:16.082Z,6.10
2023-03-02T11:33:11.318Z,5.80
2023-03-02T11:36:04.784Z,6.37
2023-03-02T11:38:54.864Z,6.17
2023-03-02T11:41:42.868Z,6.30
2023-03-02T11:44:30.463Z,5.70
2023-03-02T11:47:20.326Z,5.30
2023-03-02T11:50:10.138Z,5.70
2023-03-02T11:53:00.286Z,5.92
2023-03-02T11:55:50.500Z,6.08
2023-03-02T11:58:41.659Z,5.45
2023-03-02T12:01:30.257Z,5.40
2023-03-02T12:04:34.941Z,5.83
2023-03-02T12:07:25.610Z,5.12
2023-03-02T12:10:28.589Z,5.20
2023-03-02T12:13:24.932Z,4.90
2023-03-02T12:16:23.787Z,5.17
2023-03-02T12:19:28.906Z,5.00
2023-03-02T12:22:18.936Z,5.80
2023-03-02T12:25:24.181Z,5.17
2023-03-02T12:28:26.554Z,4.58
2023-03-02T12:31:15.053Z,5.25
2023-03-02T12:34:03.796Z,5.35
2023-03-02T12:36:58.620Z,4.92
2023-03-02T12:40:12.297Z,5.67
2023-03-02T12:43:24.704Z,4.97
2023-03-02T12:46:33.054Z,5.80
2023-03-02T12:49:45.392Z,5.03
2023-03-02T12:52:34.943Z,5.58
2023-03-02T12:55:22.334Z,6.92
2023-03-02T12:58:18.412Z,6.97
2023-03-02T13:01:06.351Z,7.08
2023-03-02T13:03:54.596Z,6.67
2023-03-02T13:06:42.141Z,6.83
2023-03-02T13:09:30.445Z,7.05
2023-03-02T13:12:17.503Z,7.28
2023-03-02T13:15:06.749Z,7.65
2023-03-02T13:17:59.715Z,7.15
2023-03-02T13:20:47.822Z,7.08
2023-03-02T13:23:35.563Z,6.10
2023-03-02T13:26:28.727Z,6.80
2023-03-02T13:29:23.010Z,6.67
2023-03-02T13:32:22.618Z,6.33
2023-03-02T13:35:18.806Z,6.78
2023-03-02T13:38:23.334Z,6.40
2023-03-02T13:41:10.986Z,6.60
2023-03-02T13:43:59.242Z,6.83
2023-03-02T13:46:47.472Z,6.85
2023-03-02T13:49:36.805Z,7.05
2023-03-02T13:52:31.486Z,6.53
2023-03-02T13:55:20.985Z,7.92
2023-03-02T13:58:11.558Z,6.87
2023-03-02T14:00:58.675Z,6.97
2023-03-02T14:03:45.416Z,6.50
2023-03-02T14:06:32.892Z,6.53
2023-03-02T14:09:20.639Z,6.50
2023-03-02T14:12:08.034Z,7.05
2023-03-02T14:14:58.955Z,6.17
2023-03-02T14:17:48.168Z,7.12
2023-03-02T14:20:35.188Z,6.92
2023-03-02T14:23:22.063Z,6.50
2023-03-02T14:26:32.116Z,7.17
2023-03-02T14:29:28.029Z,6.50
2023-03-02T14:32:17.409Z,7.03
2023-03-02T14:35:05.250Z,7.60
2023-03-02T14:37:52.448Z,7.75
2023-03-02T14:40:39.830Z,7.62
2023-03-02T14:43:29.525Z,7.78
2023-03-02T14:46:16.648Z,8.48
2023-03-02T14:49:03.945Z,7.75
2023-03-02T14:52:00.237Z,7.50
2023-03-02T14:54:53.734Z,7.62
2023-03-02T14:57:43.391Z,7.45
2023-03-02T15:00:30.572Z,8.15
2023-03-02T15:03:21.329Z,8.00
2023-03-02T15:06:14.342Z,7.55
2023-03-02T15:09:02.109Z,8.33
2023-03-02T15:11:49.398Z,10.25
2023-03-02T15:14:36.964Z,8.00
2023-03-02T15:17:24.260Z,7.30
2023-03-02T15:20:18.011Z,8.78
2023-03-02T15:23:05.483Z,7.92
2023-03-02T15:25:52.652Z,7.53
2023-03-02T15:28:40.293Z,7.72
2023-03-02T15:31:28.150Z,8.00
2023-03-02T15:34:15.514Z,7.72
2023-03-02T15:37:03.019Z,6.97
2023-03-02T15:39:55.269Z,7.83
2023-03-02T15:42:42.576Z,7.05
2023-03-02T15:45:30.001Z,7.40
2023-03-02T15:48:17.310Z,7.62
2023-03-02T15:51:06.951Z,7.58
2023-03-02T15:53:54.338Z,7.10
2023-03-02T15:56:44.262Z,8.03
2023-03-02T15:59:32.205Z,7.37
2023-03-02T16:02:19.226Z,7.25
2023-03-02T16:05:06.742Z,6.80
2023-03-02T16:07:53.754Z,6.75
2023-03-02T16:10:42.926Z,7.08
2023-03-02T16:13:30.839Z,6.70
2023-03-02T16:16:18.314Z,6.58
2023-03-02T16:19:05.800Z,6.95
2023-03-02T16:21:53.362Z,6.03
2023-03-02T16:24:41.864Z,5.28
2023-03-02T16:27:30.358Z,5.15
2023-03-02T16:30:17.988Z,4.92
2023-03-02T16:33:07.586Z,4.70
2023-03-02T16:35:54.886Z,5.40
2023-03-02T16:38:42.693Z,5.28
2023-03-02T16:41:30.099Z,5.30
2023-03-02T16:44:17.654Z,4.90
2023-03-02T16:47:05.836Z,4.35
2023-03-02T16:49:56.059Z,4.87
2023-03-02T16:52:43.840Z,4.80
2023-03-02T16:55:31.479Z,4.67
2023-03-02T16:58:18.759Z,4.50
2023-03-02T17:01:07.343Z,4.37
2023-03-02T17:03:54.899Z,4.58
2023-03-02T17:06:59.720Z,4.95
2023-03-02T17:09:37.586Z,4.60
2023-03-02T17:12:25.055Z,4.72
2023-03-02T17:15:14.177Z,4.50
2023-03-02T17:18:01.666Z,4.62
2023-03-02T17:20:54.205Z,4.78
2023-03-02T17:23:41.656Z,4.25
2023-03-02T17:26:28.871Z,4.25
2023-03-02T17:29:16.153Z,3.87
2023-03-02T17:32:03.457Z,4.03
2023-03-02T17:34:51.011Z,4.05
2023-03-02T17:37:39.112Z,4.20
2023-03-02T17:40:30.288Z,3.98
2023-03-02T17:43:17.907Z,4.15
2023-03-02T17:46:13.815Z,4.33
2023-03-02T17:49:01.872Z,4.42
2023-03-02T17:51:49.091Z,3.80
2023-03-02T17:54:36.751Z,4.25
2023-03-02T17:57:24.512Z,3.77
2023-03-02T18:00:15.365Z,3.72
2023-03-02T18:03:02.861Z,3.67
2023-03-02T18:05:50.263Z,4.05
2023-03-02T18:08:37.633Z,4.20
2023-03-02T18:11:25.761Z,4.17
2023-03-02T18:14:18.553Z,3.92
2023-03-02T18:17:10.330Z,3.95
2023-03-02T18:19:57.650Z,4.08
2023-03-02T18:22:44.796Z,4.28
2023-03-02T18:25:32.348Z,4.00
2023-03-02T18:28:20.000Z,3.72
2023-03-02T18:31:08.305Z,3.80
2023-03-02T18:33:55.555Z,4.53
2023-03-02T18:36:42.871Z,5.00
2023-03-02T18:39:30.136Z,4.17
2023-03-02T18:42:17.663Z,3.90
2023-03-02T18:45:10.337Z,4.42
2023-03-02T18:47:58.919Z,4.47
2023-03-02T18:50:47.350Z,3.85
2023-03-02T18:53:34.843Z,4.20
2023-03-02T18:56:23.829Z,4.72
2023-03-02T18:59:12.040Z,4.37
2023-03-02T19:01:59.040Z,4.17
2023-03-02T19:04:47.746Z,4.30
2023-03-02T19:07:35.337Z,4.25
2023-03-02T19:10:22.837Z,4.42
2023-03-02T19:13:11.702Z,4.60
2023-03-02T19:16:00.534Z,4.42
2023-03-02T19:18:48.516Z,3.90
2023-03-02T19:21:35.822Z,4.50
2023-03-02T19:24:23.153Z,4.05
2023-03-02T19:27:11.824Z,4.05
2023-03-02T19:29:58.980Z,4.05
2023-03-02T19:32:46.773Z,4.85
2023-03-02T19:35:35.125Z,4.10
2023-03-02T19:38:22.689Z,4.40
2023-03-02T19:41:12.963Z,4.53
2023-03-02T19:44:00.612Z,4.30
2023-03-02T19:46:47.765Z,4.15
2023-03-02T19:49:36.505Z,4.00
2023-03-02T19:52:24.510Z,4.33
2023-03-02T19:55:13.546Z,4.62
2023-03-02T19:58:01.918Z,4.67
2023-03-02T20:00:49.638Z,4.12
2023-03-02T20:03:36.995Z,5.03
2023-03-02T20:06:29.483Z,5.55
2023-03-02T20:09:18.704Z,4.37
2023-03-02T20:12:08.006Z,4.92
2023-03-02T20:14:56.743Z,4.95
2023-03-02T20:17:45.550Z,5.00
2023-03-02T20:20:32.915Z,4.33
2023-03-02T20:23:20.311Z,4.90
2023-03-02T20:26:07.393Z,5.10
2023-03-02T20:28:56.106Z,4.97
2023-03-02T20:31:43.540Z,4.62
2023-03-02T20:34:31.540Z,4.75
2023-03-02T20:37:18.625Z,4.83
2023-03-02T20:40:08.000Z,5.53
2023-03-02T20:42:55.451Z,4.85
2023-03-02T20:45:43.111Z,4.83
2023-03-02T20:48:30.369Z,5.70
2023-03-02T20:51:19.358Z,5.10
2023-03-02T20:54:06.779Z,5.28
2023-03-02T20:56:54.636Z,5.60
2023-03-02T20:59:42.369Z,5.75
2023-03-02T21:02:29.686Z,5.90
2023-03-02T21:05:22.104Z,5.62
2023-03-02T21:08:13.547Z,5.80
2023-03-02T21:11:01.378Z,5.65
2023-03-02T21:13:49.618Z,5.53
2023-03-02T21:16:39.542Z,5.58
2023-03-02T21:19:29.415Z,5.45
2023-03-02T21:22:16.685Z,5.45
2023-03-02T21:25:04.237Z,5.28
2023-03-02T21:27:51.599Z,5.45
2023-03-02T21:30:40.328Z,5.72
2023-03-02T21:33:27.829Z,6.12
2023-03-02T21:36:23.700Z,6.10
2023-03-02T21:39:11.839Z,5.53
2023-03-02T21:41:59.049Z,6.17
2023-03-02T21:44:46.784Z,6.08
2023-03-02T21:47:33.825Z,5.75
2023-03-02T21:50:24.207Z,5.62
2023-03-02T21:53:11.533Z,5.53
2023-03-02T21:55:59.020Z,6.03
2023-03-02T21:58:47.141Z,5.78
2023-03-02T22:01:34.422Z,5.80
2023-03-02T22:04:21.720Z,5.85
2023-03-02T22:07:09.012Z,6.10
2023-03-02T22:09:56.206Z,6.30
2023-03-02T22:12:44.522Z,6.78
2023-03-02T22:15:32.466Z,6.50
2023-03-02T22:18:22.391Z,6.17
2023-03-02T22:21:34.472Z,6.65
2023-03-02T22:24:28.291Z,6.50
2023-03-02T22:27:24.371Z,6.70
2023-03-02T22:30:23.746Z,6.67
2023-03-02T22:33:20.087Z,7.08
2023-03-02T22:36:16.239Z,6.95
2023-03-02T22:39:06.630Z,6.95
2023-03-02T22:41:57.262Z,7.12
2023-03-02T22:44:46.644Z,7.05
2023-03-02T22:47:34.021Z,7.60
2023-03-02T22:50:29.670Z,7.90
2023-03-02T22:53:25.269Z,7.75
2023-03-02T22:56:19.670Z,7.05
2023-03-02T22:59:26.701Z,7.65
2023-03-02T23:02:20.621Z,8.13
2023-03-02T23:05:27.694Z,8.08
2023-03-02T23:08:29.523Z,8.13
2023-03-02T23:11:19.914Z,7.78
2023-03-02T23:14:25.508Z,8.15
2023-03-02T23:17:15.680Z,8.88
2023-03-02T23:20:03.317Z,8.65
2023-03-02T23:22:50.517Z,8.03
2023-03-02T23:25:37.594Z,9.18
2023-03-02T23:28:24.737Z,8.43
2023-03-02T23:31:11.826Z,8.63
2023-03-02T23:33:59.003Z,8.50
2023-03-02T23:36:46.294Z,8.73
2023-03-02T23:39:33.611Z,8.63
2023-03-02T23:42:23.062Z,8.23
2023-03-02T23:45:10.905Z,8.25
2023-03-02T23:47:59.076Z,8.45
2023-03-02T23:50:46.563Z,8.90
2023-03-02T23:53:33.815Z,8.93
2023-03-02T23:56:21.328Z,9.10
2023-03-02T23:59:08.809Z,9.68
